Terminal Aerodrome Forecast
Issued by NWS Newport/Morehead City, NC

Home | Current Version | Previous Version | Text Only | Print | Product List | Glossary Off
Versions: 1 2 3 4 5 6 7 8 9 10 11 12 13 14 15 16 17 18 19 20 21 22 23 24 25

702
FTUS42 KMHX 201237 AAA
TAFEWN
TAF AMD
KEWN 201237Z 2013/2112 00000KT 2SM BR OVC005
      TEMPO 2013/2014 1/2SM FG OVC003
     FM201400 00000KT 3SM BR BKN007
     FM201430 VRB05KT P6SM SCT040
     FM210800 00000KT 2SM BR SCT005=

USA.gov is the U.S. government's official web portal to all federal, state and local government web resources and services.